Como, Tennessee
Current Conditions -  °F | °C
As of 2:55 PM on Friday 31 Oct 2014 (Local Time) from KPHT Reporting Station
Few Clouds Few Clouds  
Wind Chill: 39°   Ceiling: Unl
Heat Index: 46°   Visibility: 10mi
Dew Point: 27°   Wind: 18mph
Humidity: 46%   Direction: 360°N
Pressure: 30.12"   Gusts: NA
Location:  36.29°N, 88.51°W
Report Text: KPHT 311955Z AUTO 36016KT 10SM FEW046 08/M03 A3012 RMK
Loading
Personal Weather Stations






























Interactive Weather Map
Tropical Storm Tracking
New forecast layout! Learn more

10-Day Weather Forecast

Advertisements
Track Severe Weather on mobile